Time;durP1;ratioP1;P1;durP2;ratioP2;P2;SDS_P1;SDS_P2;PMS_P1;PMS_P2;Temp;Humidity;BMP_temperature;BMP_pressure;BME280_temperature;BME280_humidity;BME280_pressure;Samples;Min_cycle;Max_cycle;Signal;HPM_P1;HPM_P2
2022/02/17 00:01:44;;;;;;;;;;;;;;;15.33;41.92;98418.81;4423854;32;20003;-70
2022/02/17 00:04:10;;;;;;;;;;;;;;;15.50;42.01;98424.41;4423239;32;20850;-68
2022/02/17 00:06:36;;;;;;;;;;;;;;;15.34;43.86;98430.94;4421124;32;20582;-69
2022/02/17 00:09:02;;;;;;;;;;;;;;;14.92;45.64;98448.44;4423266;32;20003;-69
2022/02/17 00:11:28;;;;;;;;;;;;;;;14.22;47.85;98459.50;4424558;32;20372;-69
2022/02/17 00:13:53;;;;;;;;;;;;;;;14.07;48.52;98446.44;4424058;32;20063;-68
2022/02/17 00:16:20;;;;;;;;;;;;;;;14.28;48.68;98449.75;4423737;32;19965;-68
2022/02/17 00:18:46;;;;;;;;;;;;;;;14.60;48.70;98462.25;4423120;32;19961;-68
2022/02/17 00:21:11;;;;;;;;;;;;;;;14.23;48.95;98466.72;4420705;32;20300;-70
2022/02/17 00:23:36;;;;;;;;;;;;;;;13.95;49.60;98484.50;4422422;32;19993;-71
2022/02/17 00:26:02;;;;;;;;;;;;;;;13.79;50.15;98482.47;4423981;32;20008;-72
2022/02/17 00:28:27;;;;;;;;;;;;;;;13.73;50.82;98475.25;4422868;32;20046;-71
2022/02/17 00:30:53;;;;;;;;;;;;;;;13.64;50.47;98506.59;4423822;32;20014;-71
2022/02/17 00:33:19;;;;;;;;;;;;;;;13.40;50.94;98524.03;4424951;32;19994;-71
2022/02/17 00:35:44;;;;;;;;;;;;;;;13.71;49.89;98512.50;4424511;32;19999;-71
2022/02/17 00:38:10;;;;;;;;;;;;;;;13.65;49.48;98527.91;4422719;32;20008;-71
2022/02/17 00:40:36;;;;;;;;;;;;;;;13.73;48.60;98535.41;4422554;32;19957;-70
2022/02/17 00:43:01;;;;;;;;;;;;;;;13.66;49.03;98524.56;4422526;32;20444;-69
2022/02/17 00:45:27;;;;;;;;;;;;;;;14.08;48.24;98532.03;4424802;32;20279;-69
2022/02/17 00:47:53;;;;;;;;;;;;;;;13.71;47.90;98540.78;4425251;32;20407;-69
2022/02/17 00:50:19;;;;;;;;;;;;;;;14.40;47.45;98530.50;4407733;32;19996;-69
2022/02/17 00:52:44;;;;;;;;;;;;;;;13.89;46.92;98570.59;4420516;32;20412;-69
2022/02/17 00:55:09;;;;;;;;;;;;;;;13.94;46.78;98559.28;4423531;32;20018;-69
2022/02/17 00:57:35;;;;;;;;;;;;;;;14.20;46.10;98572.41;4424717;32;20339;-69
2022/02/17 01:00:03;;;;;;;;;;;;;;;14.13;45.23;98595.53;4420992;32;20453;-69
2022/02/17 01:02:28;;;;;;;;;;;;;;;13.45;45.40;98601.63;4424616;32;20317;-69
2022/02/17 01:04:54;;;;;;;;;;;;;;;14.23;44.63;98600.44;4424915;32;20019;-69
2022/02/17 01:07:20;;;;;;;;;;;;;;;14.11;44.81;98606.59;4427699;32;20324;-70
2022/02/17 01:09:45;;;;;;;;;;;;;;;14.04;45.19;98594.53;4424824;32;19958;-69
2022/02/17 01:12:11;;;;;;;;;;;;;;;14.39;44.79;98610.22;4416926;32;19958;-70
2022/02/17 01:14:36;;;;;;;;;;;;;;;14.51;44.27;98604.03;4424612;32;19953;-70
2022/02/17 01:17:03;;;;;;;;;;;;;;;14.34;43.87;98617.44;4422543;32;20020;-70
2022/02/17 01:19:29;;;;;;;;;;;;;;;14.36;44.03;98631.81;4421745;32;19956;-70
2022/02/17 01:21:54;;;;;;;;;;;;;;;14.34;43.81;98665.53;4411876;32;20091;-70
2022/02/17 01:24:20;;;;;;;;;;;;;;;14.50;43.15;98652.66;4422356;32;19991;-70
2022/02/17 01:26:46;;;;;;;;;;;;;;;14.58;43.07;98639.53;4422219;32;20327;-70
2022/02/17 01:29:12;;;;;;;;;;;;;;;14.57;43.32;98663.47;4420827;32;20037;-70
2022/02/17 01:31:37;;;;;;;;;;;;;;;14.21;43.02;98698.41;4425490;32;19961;-70
2022/02/17 01:34:03;;;;;;;;;;;;;;;14.67;42.82;98671.16;4424218;32;20365;-70
2022/02/17 01:36:29;;;;;;;;;;;;;;;14.09;43.42;98678.56;4421572;32;20723;-70
2022/02/17 01:38:55;;;;;;;;;;;;;;;14.66;42.82;98685.84;4422181;32;19960;-70
2022/02/17 01:41:21;;;;;;;;;;;;;;;14.30;42.79;98684.03;4421050;32;19993;-70
2022/02/17 01:43:48;;;;;;;;;;;;;;;14.28;42.94;98690.22;4424096;32;19980;-70
2022/02/17 01:46:13;;;;;;;;;;;;;;;14.32;42.68;98696.38;4421493;32;20091;-70
2022/02/17 01:48:39;;;;;;;;;;;;;;;14.42;42.82;98705.41;4421991;32;20012;-70
2022/02/17 01:51:05;;;;;;;;;;;;;;;14.52;43.45;98707.47;4422535;32;19988;-70
2022/02/17 01:53:30;;;;;;;;;;;;;;;14.60;44.16;98730.38;4422509;32;19996;-70
2022/02/17 01:55:57;;;;;;;;;;;;;;;14.02;46.00;98743.34;4423039;32;19993;-69
2022/02/17 01:58:23;;;;;;;;;;;;;;;13.31;46.42;98730.47;4409979;32;20005;-69
2022/02/17 02:00:49;;;;;;;;;;;;;;;13.41;46.07;98740.28;4423855;32;20037;-69
2022/02/17 02:03:15;;;;;;;;;;;;;;;13.60;46.15;98737.81;4423283;32;19993;-69
2022/02/17 02:05:40;;;;;;;;;;;;;;;13.32;45.44;98765.16;4422101;32;20077;-69
2022/02/17 02:08:07;;;;;;;;;;;;;;;13.58;44.74;98758.09;4423646;32;19988;-69
2022/02/17 02:10:33;;;;;;;;;;;;;;;13.49;44.45;98768.84;4422558;32;19950;-69
2022/02/17 02:13:00;;;;;;;;;;;;;;;13.28;44.82;98776.69;4419365;32;19953;-69
2022/02/17 02:15:28;;;;;;;;;;;;;;;13.99;43.53;98776.25;4421027;32;20358;-69
2022/02/17 02:17:54;;;;;;;;;;;;;;;13.98;43.80;98782.41;4422876;32;20461;-69
2022/02/17 02:20:19;;;;;;;;;;;;;;;13.79;43.60;98787.75;4422275;32;19996;-69
2022/02/17 02:22:46;;;;;;;;;;;;;;;13.85;43.86;98790.59;4422376;32;20005;-69
2022/02/17 02:25:12;;;;;;;;;;;;;;;14.34;42.84;98809.81;4420766;32;19997;-69
2022/02/17 02:27:37;;;;;;;;;;;;;;;13.97;43.59;98804.25;4420845;32;19972;-68
2022/02/17 02:30:04;;;;;;;;;;;;;;;13.72;44.22;98815.72;4420203;32;20376;-68
2022/02/17 02:32:29;;;;;;;;;;;;;;;14.34;43.10;98845.81;4421116;32;20347;-69
2022/02/17 02:34:55;;;;;;;;;;;;;;;14.29;43.11;98849.44;4422544;32;19950;-69
2022/02/17 02:37:20;;;;;;;;;;;;;;;14.02;43.50;98840.28;4423011;32;21106;-69
2022/02/17 02:39:46;;;;;;;;;;;;;;;13.96;43.66;98862.09;4421813;32;19969;-69
2022/02/17 02:42:11;;;;;;;;;;;;;;;14.18;43.32;98841.66;4422308;32;20022;-69
2022/02/17 02:44:37;;;;;;;;;;;;;;;14.62;42.84;98863.66;4419845;32;19985;-69
2022/02/17 02:47:03;;;;;;;;;;;;;;;14.03;42.02;98855.97;4422066;32;19988;-69
2022/02/17 02:49:29;;;;;;;;;;;;;;;14.10;41.63;98885.81;4424332;32;19981;-69
2022/02/17 02:51:54;;;;;;;;;;;;;;;14.18;nan;98866.31;4423525;32;20251;-69
2022/02/17 02:54:20;;;;;;;;;;;;;;;13.89;41.32;98890.88;4424738;32;19953;-69
2022/02/17 02:56:45;;;;;;;;;;;;;;;14.07;41.10;98892.50;4423773;32;19988;-70
2022/02/17 02:59:11;;;;;;;;;;;;;;;14.46;40.50;98884.97;4424657;32;20010;-70
2022/02/17 03:01:36;;;;;;;;;;;;;;;14.79;40.33;98907.72;4423667;32;20007;-70
2022/02/17 03:04:02;;;;;;;;;;;;;;;14.68;40.35;98901.25;4423406;32;19990;-70
2022/02/17 03:06:29;;;;;;;;;;;;;;;14.74;40.70;98907.69;4426553;32;20026;-70
2022/02/17 03:08:55;;;;;;;;;;;;;;;14.47;40.20;98880.84;4425561;32;20262;-70
2022/02/17 03:11:21;;;;;;;;;;;;;;;14.29;40.19;98934.31;4423888;32;19997;-70
2022/02/17 03:13:46;;;;;;;;;;;;;;;13.65;41.06;98940.53;4425184;32;19953;-70
2022/02/17 03:16:12;;;;;;;;;;;;;;;14.54;40.38;98945.47;4425542;32;19998;-71
2022/02/17 03:18:37;;;;;;;;;;;;;;;13.91;40.57;98952.56;4422136;32;20462;-71
2022/02/17 03:21:03;;;;;;;;;;;;;;;14.23;40.00;98931.44;4426881;32;20000;-70
2022/02/17 03:23:28;;;;;;;;;;;;;;;14.79;39.38;98955.09;4422259;32;19941;-70
2022/02/17 03:25:56;;;;;;;;;;;;;;;14.70;39.40;98953.22;4423188;32;19992;-70
2022/02/17 03:28:21;;;;;;;;;;;;;;;14.84;39.81;98963.59;4424790;32;19964;-70
2022/02/17 03:30:47;;;;;;;;;;;;;;;14.19;40.61;98966.88;4415427;32;20003;-71
2022/02/17 03:33:13;;;;;;;;;;;;;;;14.23;40.37;98973.88;4424445;32;19997;-71
2022/02/17 03:35:38;;;;;;;;;;;;;;;14.20;39.80;98983.34;4423520;32;19969;-71
2022/02/17 03:38:04;;;;;;;;;;;;;;;13.70;40.12;99004.84;4423470;32;20567;-71
2022/02/17 03:40:29;;;;;;;;;;;;;;;13.59;40.10;99004.72;4421969;32;20012;-71
2022/02/17 03:42:56;;;;;;;;;;;;;;;13.88;39.90;99005.25;4422964;32;20268;-70
2022/02/17 03:45:22;;;;;;;;;;;;;;;14.09;39.86;98998.19;4425340;32;19961;-71
2022/02/17 03:47:47;;;;;;;;;;;;;;;13.95;39.82;99013.25;4423309;32;19975;-70
2022/02/17 03:50:13;;;;;;;;;;;;;;;14.15;39.91;99000.28;4421659;32;20296;-71
2022/02/17 03:52:39;;;;;;;;;;;;;;;14.18;39.58;98999.28;4422339;32;20042;-71
2022/02/17 03:55:05;;;;;;;;;;;;;;;14.40;39.71;99033.37;4423454;32;20372;-71
2022/02/17 03:57:30;;;;;;;;;;;;;;;13.73;40.21;99003.84;4423663;32;19991;-71
2022/02/17 03:59:56;;;;;;;;;;;;;;;14.06;40.09;99021.06;4423577;32;19996;-70
2022/02/17 04:02:22;;;;;;;;;;;;;;;14.59;39.16;99023.19;4422535;32;19996;-70
2022/02/17 04:04:47;;;;;;;;;;;;;;;14.21;39.81;99035.81;4421224;32;20295;-70
2022/02/17 04:07:14;;;;;;;;;;;;;;;14.17;39.91;99029.59;4423763;32;20419;-70
2022/02/17 04:09:40;;;;;;;;;;;;;;;14.00;40.37;99048.53;4422885;32;20126;-70
2022/02/17 04:12:06;;;;;;;;;;;;;;;13.85;40.77;99047.87;4422850;32;20433;-70
2022/02/17 04:14:32;;;;;;;;;;;;;;;13.96;40.55;99056.44;4427252;32;19993;-70
2022/02/17 04:16:57;;;;;;;;;;;;;;;13.86;40.58;99077.69;4421348;32;19958;-70
2022/02/17 04:19:23;;;;;;;;;;;;;;;14.04;40.17;99071.69;4422691;32;20000;-70
2022/02/17 04:21:48;;;;;;;;;;;;;;;14.05;40.36;99068.34;4422870;32;20037;-70
2022/02/17 04:24:14;;;;;;;;;;;;;;;14.02;39.78;99060.09;4427448;32;20004;-70
2022/02/17 04:26:40;;;;;;;;;;;;;;;14.04;39.88;99063.19;4423324;32;19989;-70
2022/02/17 04:29:05;;;;;;;;;;;;;;;14.22;39.84;99057.16;4422675;32;20005;-70
2022/02/17 04:31:31;;;;;;;;;;;;;;;14.02;40.15;99066.53;4422223;32;19993;-70
2022/02/17 04:33:56;;;;;;;;;;;;;;;14.51;39.57;99068.19;4424972;32;19997;-70
2022/02/17 04:36:22;;;;;;;;;;;;;;;14.15;39.87;99068.97;4422400;32;20350;-72
2022/02/17 04:38:48;;;;;;;;;;;;;;;14.24;40.10;99071.63;4419473;32;20001;-71
2022/02/17 04:43:59;;;;;;;;;;;;;;;13.43;40.95;99102.22;4424777;32;19961;-71
2022/02/17 04:46:25;;;;;;;;;;;;;;;14.06;40.10;99086.87;4421511;32;20000;-72
2022/02/17 04:48:50;;;;;;;;;;;;;;;14.29;39.83;99095.59;4423476;32;20366;-72
2022/02/17 04:51:16;;;;;;;;;;;;;;;14.46;39.57;99096.47;4424939;32;19997;-72
2022/02/17 04:53:42;;;;;;;;;;;;;;;14.58;39.35;99118.69;4422848;32;20379;-72
2022/02/17 04:56:07;;;;;;;;;;;;;;;14.39;39.50;99105.41;4421804;32;19963;-72
2022/02/17 04:58:33;;;;;;;;;;;;;;;14.19;39.86;99109.09;4423839;32;19957;-72
2022/02/17 05:00:59;;;;;;;;;;;;;;;14.25;39.91;99121.25;4423967;32;19989;-72
2022/02/17 05:03:25;;;;;;;;;;;;;;;14.20;39.55;99115.53;4422351;32;20345;-72
2022/02/17 05:05:52;;;;;;;;;;;;;;;14.25;39.54;99131.78;4422939;32;19949;-72
2022/02/17 05:08:18;;;;;;;;;;;;;;;14.38;39.61;99126.50;4423198;32;20001;-72
2022/02/17 05:10:45;;;;;;;;;;;;;;;14.27;39.44;99151.88;4422890;32;20020;-72
2022/02/17 05:13:11;;;;;;;;;;;;;;;14.07;39.88;99141.38;4424059;32;19960;-72
2022/02/17 05:15:38;;;;;;;;;;;;;;;14.34;39.18;99157.88;4420882;32;19961;-71
2022/02/17 05:18:04;;;;;;;;;;;;;;;14.16;39.54;99166.69;4421549;32;19958;-71
2022/02/17 05:20:30;;;;;;;;;;;;;;;14.22;39.34;99161.06;4423082;32;20484;-72
2022/02/17 05:22:55;;;;;;;;;;;;;;;14.49;39.13;99171.88;4420383;32;20104;-71
2022/02/17 05:25:21;;;;;;;;;;;;;;;14.65;39.12;99177.66;4422344;32;20353;-72
2022/02/17 05:27:47;;;;;;;;;;;;;;;13.91;40.10;99179.56;4421254;32;20314;-72
2022/02/17 05:30:12;;;;;;;;;;;;;;;14.24;39.44;99181.97;4421354;32;20386;-72
2022/02/17 05:32:39;;;;;;;;;;;;;;;14.56;38.68;99194.03;4422644;32;20322;-72
2022/02/17 05:35:05;;;;;;;;;;;;;;;14.29;39.69;99186.13;4420852;32;20436;-71
2022/02/17 05:37:31;;;;;;;;;;;;;;;14.32;39.85;99197.19;4418524;32;20666;-71
2022/02/17 05:39:56;;;;;;;;;;;;;;;14.30;40.35;99194.09;4422711;32;20024;-71
2022/02/17 05:42:22;;;;;;;;;;;;;;;13.75;41.53;99207.66;4419260;32;19965;-71
2022/02/17 05:44:48;;;;;;;;;;;;;;;13.79;42.24;99205.38;4423425;32;19989;-71
2022/02/17 05:47:13;;;;;;;;;;;;;;;13.91;42.51;99207.84;4422884;32;19968;-71
2022/02/17 05:49:39;;;;;;;;;;;;;;;13.86;42.68;99213.41;4423126;32;20102;-71
2022/02/17 05:52:05;;;;;;;;;;;;;;;13.71;42.67;99226.88;4423548;32;20026;-71
2022/02/17 05:54:30;;;;;;;;;;;;;;;13.71;42.36;99226.88;4425073;32;19957;-71
2022/02/17 05:56:56;;;;;;;;;;;;;;;13.20;42.55;99219.03;4422927;32;20049;-71
2022/02/17 05:59:21;;;;;;;;;;;;;;;13.48;42.43;99211.72;4420503;32;19976;-71
2022/02/17 06:01:47;;;;;;;;;;;;;;;13.51;41.83;99215.59;4424121;32;19946;-71
2022/02/17 06:04:13;;;;;;;;;;;;;;;13.58;41.15;99238.56;4424161;32;20008;-72
2022/02/17 06:06:38;;;;;;;;;;;;;;;13.40;41.79;99224.69;4422426;32;20961;-72
2022/02/17 06:09:04;;;;;;;;;;;;;;;14.02;41.17;99241.88;4421911;32;20016;-72
2022/02/17 06:11:30;;;;;;;;;;;;;;;13.90;41.61;99247.94;4423100;32;20000;-72
2022/02/17 06:13:55;;;;;;;;;;;;;;;13.74;40.77;99245.66;4419415;32;20027;-72
2022/02/17 06:16:21;;;;;;;;;;;;;;;13.89;40.84;99244.31;4423124;32;19976;-71
2022/02/17 06:18:46;;;;;;;;;;;;;;;13.73;42.07;99242.09;4422783;32;20438;-71
2022/02/17 06:21:12;;;;;;;;;;;;;;;13.41;43.69;99257.31;4423588;32;19993;-71
2022/02/17 06:23:38;;;;;;;;;;;;;;;13.42;43.92;99261.72;4424231;32;19975;-69
2022/02/17 06:26:04;;;;;;;;;;;;;;;13.27;44.84;99257.38;4427115;32;19949;-69
2022/02/17 06:28:29;;;;;;;;;;;;;;;12.98;44.73;99263.09;4412329;32;20360;-70
2022/02/17 06:30:54;;;;;;;;;;;;;;;12.88;45.55;99256.00;4425735;32;21577;-69
2022/02/17 06:33:20;;;;;;;;;;;;;;;13.01;45.45;99267.81;4424188;32;20465;-69
2022/02/17 06:35:46;;;;;;;;;;;;;;;12.60;45.88;99247.09;4425193;32;20355;-70
2022/02/17 06:38:12;;;;;;;;;;;;;;;12.81;45.34;99268.50;4421111;32;19993;-70
2022/02/17 06:40:37;;;;;;;;;;;;;;;12.70;45.50;99270.34;4424380;32;19954;-70
2022/02/17 06:43:04;;;;;;;;;;;;;;;12.73;45.36;99295.53;4422844;32;20501;-70
2022/02/17 06:45:29;;;;;;;;;;;;;;;12.78;45.57;99275.13;4422955;32;20009;-70
2022/02/17 06:47:55;;;;;;;;;;;;;;;13.00;45.32;99286.78;4423695;32;19989;-70
2022/02/17 06:50:21;;;;;;;;;;;;;;;13.28;44.57;99296.44;4424425;32;20001;-70
2022/02/17 06:52:47;;;;;;;;;;;;;;;13.36;44.49;99282.69;4424482;32;19999;-70
2022/02/17 06:55:13;;;;;;;;;;;;;;;13.52;43.66;99284.97;4424372;32;20355;-70
2022/02/17 06:57:39;;;;;;;;;;;;;;;13.74;43.29;99290.91;4421992;32;20119;-70
2022/02/17 07:00:05;;;;;;;;;;;;;;;13.52;42.63;99304.75;4424151;32;19953;-70
2022/02/17 07:02:33;;;;;;;;;;;;;;;13.59;42.62;99305.09;4422550;32;20002;-71
2022/02/17 07:04:58;;;;;;;;;;;;;;;13.55;43.11;99312.22;4427901;32;19961;-70
2022/02/17 07:07:24;;;;;;;;;;;;;;;13.34;43.07;99305.78;4425362;32;20000;-71
2022/02/17 07:09:50;;;;;;;;;;;;;;;13.50;42.82;99322.19;4420681;32;19953;-71
2022/02/17 07:12:15;;;;;;;;;;;;;;;13.12;43.28;99310.31;4424356;32;20648;-71
2022/02/17 07:14:41;;;;;;;;;;;;;;;13.10;43.45;99341.12;4425528;32;19961;-71
2022/02/17 07:17:07;;;;;;;;;;;;;;;13.01;42.97;99304.50;4425117;32;20445;-71
2022/02/17 07:19:33;;;;;;;;;;;;;;;13.18;43.01;99314.78;4422998;32;20001;-71
2022/02/17 07:21:59;;;;;;;;;;;;;;;13.68;42.41;99318.31;4422988;32;20000;-71
2022/02/17 07:24:25;;;;;;;;;;;;;;;13.48;41.97;99341.72;4427039;32;19988;-71
2022/02/17 07:26:50;;;;;;;;;;;;;;;13.93;41.45;99334.59;4424251;32;19969;-71
2022/02/17 07:29:17;;;;;;;;;;;;;;;13.58;41.50;99328.22;4424301;32;20045;-71
2022/02/17 07:31:43;;;;;;;;;;;;;;;13.54;41.63;99325.59;4423062;32;21265;-71
2022/02/17 07:34:09;;;;;;;;;;;;;;;13.50;43.23;99347.63;4410791;32;19964;-70
2022/02/17 07:36:35;;;;;;;;;;;;;;;13.32;45.25;99344.28;4423870;32;20120;-70
2022/02/17 07:39:01;;;;;;;;;;;;;;;13.19;45.55;99370.00;4419921;32;20042;-71
2022/02/17 07:41:26;;;;;;;;;;;;;;;12.77;46.28;99357.47;4421715;32;20340;-71
2022/02/17 07:43:52;;;;;;;;;;;;;;;13.09;46.06;99353.66;4421281;32;19958;-71
2022/02/17 07:46:17;;;;;;;;;;;;;;;12.47;47.03;99378.44;4424139;32;19957;-71
2022/02/17 07:48:44;;;;;;;;;;;;;;;12.53;47.35;99390.63;4421691;32;19998;-71
2022/02/17 07:51:09;;;;;;;;;;;;;;;12.42;47.21;99382.72;4421888;32;20001;-71
2022/02/17 07:53:35;;;;;;;;;;;;;;;12.29;47.17;99396.31;4422313;32;20000;-71
2022/02/17 07:56:00;;;;;;;;;;;;;;;12.58;46.66;99413.28;4424059;32;20014;-70
2022/02/17 07:58:26;;;;;;;;;;;;;;;12.45;48.18;99431.78;4420532;32;20036;-70
2022/02/17 08:00:52;;;;;;;;;;;;;;;12.24;49.52;99453.38;4421379;32;20317;-70
2022/02/17 08:03:17;;;;;;;;;;;;;;;12.39;49.60;99462.69;4420983;32;20031;-71
2022/02/17 08:05:43;;;;;;;;;;;;;;;11.86;50.59;99461.78;4425893;32;19949;-71
2022/02/17 08:08:09;;;;;;;;;;;;;;;11.96;50.51;99452.78;4411377;32;19949;-72
2022/02/17 08:10:35;;;;;;;;;;;;;;;11.90;50.14;99451.87;4422522;32;20012;-73
2022/02/17 08:13:01;;;;;;;;;;;;;;;11.96;50.22;99447.16;4425038;32;20322;-73
2022/02/17 08:15:27;;;;;;;;;;;;;;;11.81;49.92;99445.50;4424253;32;20369;-73
2022/02/17 08:17:53;;;;;;;;;;;;;;;11.82;49.51;99439.38;4421986;32;20371;-73
2022/02/17 08:20:19;;;;;;;;;;;;;;;12.13;48.74;99459.56;4420790;32;20473;-73
2022/02/17 08:22:54;;;;;;;;;;;;;;;12.10;48.54;99462.56;4422592;32;20033;-73
2022/02/17 08:25:21;;;;;;;;;;;;;;;12.53;48.01;99480.91;4423703;32;20030;-72
2022/02/17 08:27:47;;;;;;;;;;;;;;;12.46;46.70;99486.94;4422039;32;20403;-72
2022/02/17 08:30:13;;;;;;;;;;;;;;;12.69;45.91;99477.63;4421512;32;20037;-72
2022/02/17 08:32:39;;;;;;;;;;;;;;;12.89;45.46;99472.91;4423216;32;19969;-72
2022/02/17 08:35:05;;;;;;;;;;;;;;;12.70;45.21;99501.81;4420551;32;19999;-71
2022/02/17 08:37:31;;;;;;;;;;;;;;;12.63;45.62;99486.00;4422071;32;20379;-71
2022/02/17 08:39:57;;;;;;;;;;;;;;;12.62;45.87;99475.19;4422974;32;21096;-71
2022/02/17 08:42:23;;;;;;;;;;;;;;;12.93;44.46;99456.56;4421579;32;19957;-71
2022/02/17 08:44:48;;;;;;;;;;;;;;;13.24;43.60;99468.19;4419291;32;20007;-70
2022/02/17 08:47:16;;;;;;;;;;;;;;;13.19;43.26;99468.88;4421569;32;20001;-70
2022/02/17 08:49:42;;;;;;;;;;;;;;;13.33;42.57;99476.59;4420412;32;19958;-71
2022/02/17 08:52:08;;;;;;;;;;;;;;;13.80;42.68;99500.97;4422292;32;20282;-71
2022/02/17 08:54:33;;;;;;;;;;;;;;;13.48;41.92;99511.28;4423545;32;20000;-71
2022/02/17 08:56:59;;;;;;;;;;;;;;;13.42;41.45;99526.56;4421937;32;19958;-72
2022/02/17 08:59:24;;;;;;;;;;;;;;;13.52;41.41;99531.62;4422457;32;20034;-70
2022/02/17 09:01:51;;;;;;;;;;;;;;;13.32;41.85;99553.34;4415267;32;19964;-71
2022/02/17 09:04:17;;;;;;;;;;;;;;;13.68;41.59;99505.69;4418902;32;20033;-71
2022/02/17 09:06:43;;;;;;;;;;;;;;;13.40;41.95;99540.38;4422931;32;19945;-71
2022/02/17 09:09:08;;;;;;;;;;;;;;;13.68;41.67;99555.78;4422216;32;19980;-71
2022/02/17 09:11:34;;;;;;;;;;;;;;;14.32;40.76;99572.78;4422453;32;19954;-71
2022/02/17 09:14:00;;;;;;;;;;;;;;;13.89;40.21;99546.13;4422728;32;20004;-71
2022/02/17 09:16:25;;;;;;;;;;;;;;;14.20;39.33;99571.03;4421919;32;20646;-71
2022/02/17 09:18:51;;;;;;;;;;;;;;;13.88;39.94;99562.31;4420058;32;20351;-71
2022/02/17 09:21:16;;;;;;;;;;;;;;;14.22;39.57;99563.62;4422125;32;19958;-71
2022/02/17 09:23:43;;;;;;;;;;;;;;;14.26;38.92;99583.25;4420919;32;20325;-71
2022/02/17 09:26:08;;;;;;;;;;;;;;;14.49;38.58;99579.47;4421945;32;19949;-71
2022/02/17 09:28:34;;;;;;;;;;;;;;;14.63;38.64;99602.06;4420585;32;20015;-71
2022/02/17 09:31:00;;;;;;;;;;;;;;;14.35;39.01;99566.13;4421023;32;20324;-71
2022/02/17 09:33:26;;;;;;;;;;;;;;;14.66;38.72;99566.34;4423399;32;19962;-71
2022/02/17 09:35:53;;;;;;;;;;;;;;;14.71;39.29;99585.44;4419255;32;20073;-70
2022/02/17 09:38:19;;;;;;;;;;;;;;;14.68;39.52;99598.53;4423550;32;19992;-71
2022/02/17 09:40:46;;;;;;;;;;;;;;;14.99;39.29;99606.41;4420853;32;19949;-72
2022/02/17 09:43:12;;;;;;;;;;;;;;;14.89;39.76;99599.31;4420749;32;19961;-70
2022/02/17 09:45:43;;;;;;;;;;;;;;;14.60;39.47;99617.19;4420144;32;19997;-70
2022/02/17 09:48:09;;;;;;;;;;;;;;;14.65;39.59;99619.34;4419466;32;20343;-70
2022/02/17 09:50:35;;;;;;;;;;;;;;;14.65;39.24;99619.34;4421171;32;19989;-70
2022/02/17 09:53:02;;;;;;;;;;;;;;;14.45;38.38;99627.78;4420656;32;19963;-71
2022/02/17 09:55:27;;;;;;;;;;;;;;;14.26;38.39;99639.84;4422623;32;20100;-70
2022/02/17 09:57:52;;;;;;;;;;;;;;;14.35;38.27;99668.81;4425599;32;19993;-70
2022/02/17 10:00:18;;;;;;;;;;;;;;;13.99;39.21;99643.72;4424339;32;19965;-70
2022/02/17 10:02:44;;;;;;;;;;;;;;;14.44;38.15;99667.91;4421105;32;20398;-71
2022/02/17 10:05:15;;;;;;;;;;;;;;;14.22;38.13;99662.66;4412966;32;19965;-70
2022/02/17 10:07:43;;;;;;;;;;;;;;;14.55;37.50;99660.38;4425036;32;19980;-70
2022/02/17 10:10:13;;;;;;;;;;;;;;;14.81;36.79;99661.28;4424752;32;20698;-70
2022/02/17 10:12:55;;;;;;;;;;;;;;;15.49;36.59;99656.00;4423745;32;20339;-70
2022/02/17 10:20:58;;;;;;;;;;;;;;;15.69;35.02;99695.69;3953003;32;15723464;-71
2022/02/17 10:23:26;;;;;;;;;;;;;;;15.74;35.35;99706.31;4422490;32;19973;-70
2022/02/17 10:26:08;;;;;;;;;;;;;;;15.91;34.67;99691.03;4437177;32;20287;-71
2022/02/17 10:31:30;;;;;;;;;;;;;;;17.35;31.67;99709.19;3953188;32;15722626;-71
2022/02/17 10:33:58;;;;;;;;;;;;;;;17.35;31.67;99709.19;4429047;32;20522;-70
2022/02/17 10:36:31;;;;;;;;;;;;;;;16.57;32.97;99739.12;4431580;32;19969;-70
2022/02/17 10:39:13;;;;;;;;;;;;;;;16.54;33.02;99717.44;4427771;32;20017;-70
2022/02/17 10:41:59;;;;;;;;;;;;;;;16.36;33.25;99751.06;4430321;32;19997;-71
2022/02/17 10:44:41;;;;;;;;;;;;;;;16.45;33.63;99731.03;4430259;32;20037;-71
2022/02/17 10:47:16;;;;;;;;;;;;;;;15.95;34.01;99756.06;4427101;32;20375;-70
2022/02/17 10:49:43;;;;;;;;;;;;;;;15.61;35.16;99751.25;4426345;32;20000;-71
2022/02/17 10:52:09;;;;;;;;;;;;;;;15.90;35.14;99751.88;4428568;32;20045;-70
2022/02/17 10:54:34;;;;;;;;;;;;;;;15.71;35.27;99758.38;4429002;32;20416;-70
2022/02/17 10:57:02;;;;;;;;;;;;;;;15.94;35.42;99786.50;4428580;32;20201;-70
2022/02/17 11:00:04;;;;;;;;;;;;;;;15.66;36.05;99768.38;4429559;32;20734;-70
2022/02/17 11:02:19;;;;;;;;;;;;;;;15.65;35.84;99763.19;4430458;32;20021;-70
2022/02/17 11:04:44;;;;;;;;;;;;;;;15.58;36.27;99767.22;4432073;32;20373;-70
2022/02/17 11:07:10;;;;;;;;;;;;;;;15.14;39.48;99796.97;4426696;32;20016;-69
2022/02/17 11:09:36;;;;;;;;;;;;;;;14.96;41.23;99805.69;4430685;32;19989;-69
2022/02/17 11:12:02;;;;;;;;;;;;;;;14.82;42.69;99807.28;4429159;32;20012;-69
2022/02/17 11:14:44;;;;;;;;;;;;;;;15.12;43.57;99791.00;4429041;32;20308;-69
2022/02/17 11:17:11;;;;;;;;;;;;;;;15.30;42.58;99800.06;4413250;32;19954;-68
2022/02/17 11:19:37;;;;;;;;;;;;;;;15.36;41.82;99809.41;4429666;32;20034;-68
2022/02/17 11:22:04;;;;;;;;;;;;;;;14.83;40.79;99805.22;4432691;32;20112;-68
2022/02/17 11:24:44;;;;;;;;;;;;;;;15.10;40.52;99800.00;4426854;32;19977;-69
2022/02/17 11:27:10;;;;;;;;;;;;;;;14.83;39.90;99808.06;4427973;32;19991;-70
2022/02/17 11:29:38;;;;;;;;;;;;;;;15.33;39.74;99807.56;4430650;32;20046;-70
2022/02/17 11:32:04;;;;;;;;;;;;;;;15.30;39.59;99831.25;4431481;32;20024;-70
2022/02/17 11:34:46;;;;;;;;;;;;;;;15.09;38.52;99818.28;4414089;32;19961;-71
2022/02/17 11:40:04;;;;;;;;;;;;;;;16.04;37.29;99818.31;3955085;32;15820370;-69
2022/02/17 11:42:31;;;;;;;;;;;;;;;16.04;37.29;99818.31;4443762;32;19967;-70
2022/02/17 11:45:13;;;;;;;;;;;;;;;15.61;37.22;99822.94;4446755;32;19957;-69
2022/02/17 11:48:00;;;;;;;;;;;;;;;15.89;36.86;99823.31;4441008;32;19969;-69
2022/02/17 11:50:42;;;;;;;;;;;;;;;16.36;36.37;99813.53;4441644;32;20310;-69
2022/02/17 11:53:28;;;;;;;;;;;;;;;16.05;37.43;99817.06;4445723;32;19996;-69
2022/02/17 11:56:13;;;;;;;;;;;;;;;15.93;37.33;99815.38;4439021;32;20270;-71
2022/02/17 12:04:18;;;;;;;;;;;;;;;14.83;41.65;99854.19;3920360;32;15722237;-69
2022/02/17 12:09:42;;;;;;;;;;;;;;;14.63;42.00;99839.91;3946852;32;15725487;-69
2022/02/17 12:14:59;;;;;;;;;;;;;;;15.27;40.25;99822.94;3952649;32;15726521;-70
2022/02/17 12:17:26;;;;;;;;;;;;;;;15.27;40.25;99822.94;4427126;32;20410;-70
2022/02/17 12:20:12;;;;;;;;;;;;;;;15.00;41.25;99834.63;4427992;32;20042;-69
2022/02/17 12:22:58;;;;;;;;;;;;;;;14.27;43.82;99842.31;4429968;32;19989;-69
2022/02/17 12:25:27;;;;;;;;;;;;;;;13.93;44.40;99812.56;4424955;32;20092;-70
2022/02/17 12:27:55;;;;;;;;;;;;;;;14.57;44.19;99816.38;4426906;32;19993;-70
2022/02/17 12:30:22;;;;;;;;;;;;;;;14.92;43.51;99807.97;4411502;32;20047;-70
2022/02/17 12:33:00;;;;;;;;;;;;;;;15.02;43.08;99792.41;4425949;32;20445;-70
2022/02/17 12:35:26;;;;;;;;;;;;;;;15.19;42.52;99782.88;4428640;32;20037;-70
2022/02/17 12:38:11;;;;;;;;;;;;;;;15.55;42.25;99807.91;4425879;32;20486;-70
2022/02/17 12:40:39;;;;;;;;;;;;;;;16.25;41.14;99808.50;4428238;32;20327;-70
2022/02/17 12:43:05;;;;;;;;;;;;;;;16.59;40.98;99799.06;4423247;32;19974;-71
2022/02/17 12:45:32;;;;;;;;;;;;;;;17.30;39.87;99806.59;4426219;32;20012;-71
2022/02/17 12:47:59;;;;;;;;;;;;;;;17.54;38.77;99809.91;4430300;32;19976;-71
2022/02/17 12:50:24;;;;;;;;;;;;;;;17.38;38.82;99808.50;4425291;32;20417;-72
2022/02/17 12:52:50;;;;;;;;;;;;;;;17.43;38.90;99802.06;4427161;32;20428;-72
2022/02/17 12:55:16;;;;;;;;;;;;;;;17.55;38.05;99785.88;4409881;32;21402;-70
2022/02/17 12:57:51;;;;;;;;;;;;;;;16.93;38.02;99792.41;4426863;32;20020;-70
2022/02/17 13:00:16;;;;;;;;;;;;;;;17.29;37.51;99791.62;4428109;32;19957;-70
2022/02/17 13:02:42;;;;;;;;;;;;;;;16.90;37.92;99789.78;4424697;32;19998;-69
2022/02/17 13:05:08;;;;;;;;;;;;;;;17.83;36.76;99778.25;4428524;32;20317;-69
2022/02/17 13:07:35;;;;;;;;;;;;;;;19.25;35.54;99781.78;4428569;32;19999;-69
2022/02/17 13:10:01;;;;;;;;;;;;;;;20.61;32.79;99772.41;4423795;32;19971;-69